Time;durP1;ratioP1;P1;durP2;ratioP2;P2;SDS_P1;SDS_P2;PMS_P1;PMS_P2;Temp;Humidity;BMP_temperature;BMP_pressure;BME280_temperature;BME280_humidity;BME280_pressure;Samples;Min_cycle;Max_cycle;Signal;HPM_P1;HPM_P2
2022/04/08 00:00:57;;;;;;;;;4.50;0.50;;;;;9.09;56.55;99608.88;5057178;28;45729;-61
2022/04/08 00:03:26;;;;;;;;;7.00;3.00;;;;;9.06;56.55;99617.75;5057722;28;45431;-61
2022/04/08 00:05:54;;;;;;;;;0.25;0.25;;;;;9.03;56.79;99616.13;5057254;28;45469;-63
2022/04/08 00:08:21;;;;;;;;;0.00;0.00;;;;;9.03;56.60;99617.91;5057418;28;45414;-62
2022/04/08 00:10:46;;;;;;;;;3.25;0.50;;;;;9.06;56.80;99604.63;5057069;28;45384;-62
2022/04/08 00:13:12;;;;;;;;;2.75;0.50;;;;;9.10;56.87;99602.72;5039372;28;45347;-63
2022/04/08 00:15:38;;;;;;;;;0.50;0.50;;;;;9.14;56.56;99597.22;5055753;28;48305;-62
2022/04/08 00:18:04;;;;;;;;;4.50;0.50;;;;;9.18;56.60;99608.44;5057349;28;45419;-62
2022/04/08 00:20:32;;;;;;;;;1.00;1.00;;;;;9.21;56.45;99601.22;5057465;28;45285;-60
2022/04/08 00:22:58;;;;;;;;;2.00;1.00;;;;;9.27;56.35;99599.22;5057532;28;45612;-62
2022/04/08 00:25:24;;;;;;;;;1.50;0.50;;;;;9.29;56.51;99589.50;5039222;28;47685;-60
2022/04/08 00:27:49;;;;;;;;;1.50;1.00;;;;;9.34;56.12;99588.34;5039034;28;45418;-60
2022/04/08 00:30:14;;;;;;;;;2.00;0.75;;;;;9.37;56.17;99595.22;5038925;28;45390;-60
2022/04/08 00:32:40;;;;;;;;;1.00;1.00;;;;;9.38;56.28;99583.78;5057289;28;45562;-62
2022/04/08 00:35:05;;;;;;;;;2.25;0.50;;;;;9.40;56.39;99595.06;5056986;28;45462;-60
2022/04/08 00:37:31;;;;;;;;;0.50;0.50;;;;;9.41;56.57;99588.88;5056988;28;45349;-60
2022/04/08 00:39:57;;;;;;;;;0.00;0.00;;;;;9.41;56.86;99593.28;5057133;28;45304;-59
2022/04/08 00:42:22;;;;;;;;;5.00;1.25;;;;;9.44;56.45;99587.88;5057070;28;45576;-58
2022/04/08 00:44:47;;;;;;;;;1.00;0.50;;;;;9.43;56.33;99584.38;5055291;28;48211;-60
2022/04/08 00:47:13;;;;;;;;;1.75;0.50;;;;;9.44;56.73;99583.47;5038752;28;45213;-62
2022/04/08 00:49:38;;;;;;;;;1.00;1.00;;;;;9.46;56.70;99578.97;5056605;28;45320;-60
2022/04/08 00:52:04;;;;;;;;;0.50;0.50;;;;;9.49;56.43;99576.19;5056444;28;45256;-61
2022/04/08 00:54:31;;;;;;;;;0.00;0.00;;;;;9.51;56.86;99568.25;5056384;28;45582;-62
2022/04/08 00:56:57;;;;;;;;;5.75;0.75;;;;;9.52;56.84;99563.84;5056874;28;45361;-61
2022/04/08 00:59:26;;;;;;;;;0.50;0.50;;;;;9.52;56.71;99564.69;5056680;28;45375;-60
2022/04/08 01:01:52;;;;;;;;;0.00;0.00;;;;;9.53;57.03;99560.28;5056971;28;45607;-61
2022/04/08 01:04:18;;;;;;;;;2.00;0.50;;;;;9.50;57.15;99572.66;5056480;28;45391;-60
2022/04/08 01:06:44;;;;;;;;;2.00;0.00;;;;;9.52;57.12;99558.59;5056525;28;45464;-59
2022/04/08 01:09:10;;;;;;;;;2.75;1.50;;;;;9.54;57.33;99561.97;5056746;28;45324;-60
2022/04/08 01:11:37;;;;;;;;;6.00;1.00;;;;;9.56;57.07;99560.16;5056874;28;45542;-60
2022/04/08 01:14:13;;;;;;;;;0.75;0.75;;;;;9.58;57.46;99555.66;5056242;28;46488;-60
2022/04/08 01:16:39;;;;;;;;;3.25;0.25;;;;;9.56;57.20;99560.16;5056255;28;45906;-61
2022/04/08 01:19:05;;;;;;;;;0.75;0.75;;;;;9.56;57.32;99547.03;5056436;28;45365;-60
2022/04/08 01:21:32;;;;;;;;;4.50;1.25;;;;;9.55;57.08;99548.78;5056602;28;45324;-62
2022/04/08 01:23:59;;;;;;;;;1.50;0.50;;;;;9.56;57.22;99547.03;5056804;28;45374;-61
2022/04/08 01:26:24;;;;;;;;;0.00;0.00;;;;;9.56;57.41;99545.22;5056618;28;45426;-61
2022/04/08 01:28:51;;;;;;;;;1.75;0.00;;;;;9.59;57.20;99536.38;5056435;28;45289;-60
2022/04/08 01:31:16;;;;;;;;;2.50;0.75;;;;;9.60;56.97;99536.28;5056503;28;45262;-59
2022/04/08 01:33:42;;;;;;;;;1.50;0.50;;;;;9.63;57.14;99532.66;5055968;28;45615;-60
2022/04/08 01:36:07;;;;;;;;;2.50;0.75;;;;;9.62;57.14;99541.44;5056212;28;45435;-60
2022/04/08 01:38:33;;;;;;;;;1.00;1.00;;;;;9.60;56.84;99536.28;5056225;28;45469;-61
2022/04/08 01:40:58;;;;;;;;;0.00;0.00;;;;;9.61;57.08;99531.88;5056883;28;45609;-62
2022/04/08 01:43:24;;;;;;;;;1.25;1.25;;;;;9.61;57.07;99529.25;5055990;28;46275;-60
2022/04/08 01:45:50;;;;;;;;;3.00;0.25;;;;;9.59;57.07;99531.13;5056046;28;45296;-60
2022/04/08 01:48:18;;;;;;;;;2.50;0.50;;;;;9.60;57.21;99532.81;5038140;28;45430;-60
2022/04/08 01:50:44;;;;;;;;;0.75;0.75;;;;;9.57;57.41;99532.97;5055045;28;45526;-60
2022/04/08 01:53:09;;;;;;;;;3.50;0.75;;;;;9.55;57.43;99538.28;5055693;28;45372;-61
2022/04/08 01:55:35;;;;;;;;;2.00;0.75;;;;;9.54;57.06;99525.22;5055778;28;45313;-61
2022/04/08 01:58:02;;;;;;;;;0.25;0.25;;;;;9.52;57.48;99521.84;5056332;28;45234;-61
2022/04/08 02:00:28;;;;;;;;;2.00;0.00;;;;;9.53;57.43;99526.16;5056477;28;45248;-60
2022/04/08 02:02:54;;;;;;;;;0.25;0.25;;;;;9.53;57.73;99518.28;5054614;28;46612;-60
2022/04/08 02:05:19;;;;;;;;;1.50;0.00;;;;;9.54;57.44;99515.59;5055646;28;45344;-60
2022/04/08 02:07:45;;;;;;;;;0.25;0.25;;;;;9.56;57.50;99515.53;5055759;28;45834;-59
2022/04/08 02:10:10;;;;;;;;;2.50;0.00;;;;;9.56;57.43;99526.03;5056177;28;45407;-60
2022/04/08 02:12:36;;;;;;;;;1.25;0.75;;;;;9.54;57.42;99526.09;5055626;28;45622;-64
2022/04/08 02:15:01;;;;;;;;;0.50;0.25;;;;;9.54;57.46;99526.09;5055725;28;45337;-64
2022/04/08 02:17:28;;;;;;;;;0.00;0.00;;;;;9.54;57.41;99519.97;5056095;28;45275;-62
2022/04/08 02:19:54;;;;;;;;;2.00;0.00;;;;;9.52;57.28;99520.06;5055930;28;45617;-61
2022/04/08 02:22:20;;;;;;;;;2.75;0.00;;;;;9.51;57.51;99523.63;5055267;28;45563;-61
2022/04/08 02:24:49;;;;;;;;;0.50;0.50;;;;;9.50;57.40;99522.75;5055381;28;45500;-59
2022/04/08 02:27:14;;;;;;;;;2.00;0.00;;;;;9.48;57.48;99514.13;5055407;28;45353;-62
2022/04/08 02:29:39;;;;;;;;;0.50;0.50;;;;;9.49;57.55;99515.81;5037446;28;45678;-60
2022/04/08 02:32:05;;;;;;;;;1.25;1.00;;;;;9.51;57.66;99515.75;5037342;28;47166;-60
2022/04/08 02:34:31;;;;;;;;;1.00;0.75;;;;;9.50;57.52;99500.94;5037545;28;45434;-60
2022/04/08 02:36:56;;;;;;;;;0.75;0.75;;;;;9.48;57.51;99506.25;5055733;28;45437;-59
2022/04/08 02:39:21;;;;;;;;;0.25;0.00;;;;;9.46;57.94;99505.47;5055358;28;45599;-61
2022/04/08 02:41:47;;;;;;;;;0.50;0.50;;;;;9.46;58.08;99509.91;5037113;28;46971;-61
2022/04/08 02:44:12;;;;;;;;;3.00;1.50;;;;;9.46;57.86;99496.78;5055532;28;45937;-60
2022/04/08 02:46:37;;;;;;;;;4.25;2.50;;;;;9.46;58.02;99500.22;5055442;28;45299;-60
2022/04/08 02:49:03;;;;;;;;;0.50;0.50;;;;;9.46;57.98;99497.59;5055394;28;45324;-60
2022/04/08 02:51:28;;;;;;;;;0.00;0.00;;;;;9.45;58.11;99493.28;5055400;28;46131;-60
2022/04/08 02:53:54;;;;;;;;;1.75;0.75;;;;;9.42;58.14;99487.38;5055018;28;45351;-62
2022/04/08 02:56:20;;;;;;;;;2.75;0.50;;;;;9.45;58.29;99493.28;5055243;28;45236;-60
2022/04/08 02:58:48;;;;;;;;;1.75;0.00;;;;;9.47;58.51;99482.72;5055207;28;45251;-61
2022/04/08 03:01:15;;;;;;;;;1.50;0.75;;;;;9.49;58.51;99481.69;5054766;28;46495;-60
2022/04/08 03:03:40;;;;;;;;;0.00;0.00;;;;;9.50;58.42;99483.38;5054986;28;45512;-60
2022/04/08 03:06:05;;;;;;;;;0.00;0.00;;;;;9.50;58.62;99472.88;5054779;28;45405;-61
2022/04/08 03:08:31;;;;;;;;;0.25;0.25;;;;;9.54;58.48;99478.84;5055507;28;45533;-61
2022/04/08 03:10:57;;;;;;;;;0.50;0.50;;;;;9.56;58.24;99482.22;5054700;28;45405;-62
2022/04/08 03:13:23;;;;;;;;;2.25;1.00;;;;;9.56;58.68;99466.47;5054629;28;45376;-62
2022/04/08 03:15:49;;;;;;;;;2.50;0.50;;;;;9.58;58.62;99461.16;5058442;28;45602;-59
2022/04/08 03:18:14;;;;;;;;;0.50;0.50;;;;;9.61;58.74;99466.25;5058417;28;45637;-61
2022/04/08 03:20:39;;;;;;;;;0.00;0.00;;;;;9.62;58.90;99470.56;5058423;28;45581;-61
2022/04/08 03:23:05;;;;;;;;;0.50;0.50;;;;;9.61;58.82;99458.38;5058211;28;45700;-61
2022/04/08 03:25:31;;;;;;;;;0.00;0.00;;;;;9.60;59.24;99465.38;5059076;28;45272;-62
2022/04/08 03:27:56;;;;;;;;;1.50;0.50;;;;;9.60;59.22;99454.88;5058570;28;45570;-59
2022/04/08 03:30:21;;;;;;;;;1.75;0.50;;;;;9.60;59.38;99446.16;5058328;28;45623;-60
2022/04/08 03:32:47;;;;;;;;;0.75;0.75;;;;;9.63;59.57;99459.13;5040201;28;45414;-60
2022/04/08 03:35:13;;;;;;;;;0.75;0.75;;;;;9.59;60.25;99444.47;5058439;28;45328;-60
2022/04/08 03:37:39;;;;;;;;;5.25;1.25;;;;;9.66;60.23;99453.72;5058251;28;45549;-60
2022/04/08 03:40:05;;;;;;;;;4.50;1.00;;;;;9.64;60.64;99442.44;5058326;28;45319;-59
2022/04/08 03:42:30;;;;;;;;;6.75;1.75;;;;;9.65;61.22;99458.09;5058151;28;45469;-63
2022/04/08 03:44:55;;;;;;;;;1.25;0.50;;;;;9.63;60.93;99441.59;5057973;28;45427;-60
2022/04/08 03:47:21;;;;;;;;;4.50;3.75;;;;;9.60;61.35;99439.13;5058228;28;45324;-61
2022/04/08 03:49:46;;;;;;;;;1.00;1.00;;;;;9.60;61.30;99441.75;5057809;28;46175;-61
2022/04/08 03:52:12;;;;;;;;;1.25;0.25;;;;;9.57;61.59;99430.59;5057754;28;45240;-60
2022/04/08 03:54:38;;;;;;;;;2.75;0.75;;;;;9.56;61.93;99421.00;5056682;28;45239;-61
2022/04/08 03:57:04;;;;;;;;;0.25;0.25;;;;;9.53;62.66;99419.38;5058322;28;45284;-60
2022/04/08 03:59:30;;;;;;;;;1.00;1.00;;;;;9.49;63.27;99417.88;5057677;28;45404;-60
2022/04/08 04:01:55;;;;;;;;;1.25;1.25;;;;;9.46;63.39;99407.53;5056258;28;45260;-61
2022/04/08 04:04:21;;;;;;;;;3.00;1.00;;;;;9.46;63.58;99397.88;5057668;28;45304;-59
2022/04/08 04:06:46;;;;;;;;;5.25;1.50;;;;;9.41;63.89;99394.63;5057663;28;45225;-60
2022/04/08 04:09:11;;;;;;;;;0.50;0.50;;;;;9.42;64.23;99388.47;5057153;28;45435;-60
2022/04/08 04:11:37;;;;;;;;;1.75;0.50;;;;;9.41;64.78;99392.00;5057420;28;45189;-61
2022/04/08 04:14:02;;;;;;;;;0.75;0.75;;;;;9.42;64.70;99385.00;5057568;28;45479;-60
2022/04/08 04:16:28;;;;;;;;;1.00;1.00;;;;;9.40;65.36;99381.63;5057505;28;45394;-61
2022/04/08 04:18:53;;;;;;;;;1.50;1.50;;;;;9.38;65.61;99371.19;5057430;28;46177;-60
2022/04/08 04:21:19;;;;;;;;;3.50;1.00;;;;;9.33;65.51;99365.34;5057387;28;45412;-60
2022/04/08 04:23:44;;;;;;;;;3.00;0.50;;;;;9.31;66.02;99368.06;5057215;28;45351;-61
2022/04/08 04:26:09;;;;;;;;;2.25;0.50;;;;;9.30;66.08;99353.25;5038384;28;45402;-60
2022/04/08 04:28:35;;;;;;;;;3.00;0.25;;;;;9.29;66.38;99346.31;5057429;28;46173;-61
2022/04/08 04:31:03;;;;;;;;;1.50;1.50;;;;;9.30;66.71;99349.78;5056987;28;45270;-61
2022/04/08 04:33:29;;;;;;;;;4.00;2.75;;;;;9.28;66.50;99352.50;5057282;28;45178;-61
2022/04/08 04:35:55;;;;;;;;;2.75;0.50;;;;;9.28;67.12;99339.38;5057205;28;45296;-61
2022/04/08 04:38:21;;;;;;;;;5.00;2.00;;;;;9.32;67.49;99334.78;5038903;28;45458;-61
2022/04/08 04:40:46;;;;;;;;;2.25;2.25;;;;;9.32;67.63;99321.66;5056904;28;45338;-61
2022/04/08 04:43:11;;;;;;;;;1.00;1.00;;;;;9.33;67.63;99324.22;5057137;28;45650;-61
2022/04/08 04:45:38;;;;;;;;;4.75;2.25;;;;;9.33;68.15;99320.72;5057672;28;45289;-60
2022/04/08 04:48:05;;;;;;;;;4.00;1.75;;;;;9.36;68.47;99312.69;5057030;28;46865;-60
2022/04/08 04:50:31;;;;;;;;;2.00;1.00;;;;;9.37;68.09;99301.25;5056547;28;45392;-60
2022/04/08 04:52:56;;;;;;;;;2.00;2.00;;;;;9.35;68.04;99301.38;5056913;28;45323;-61
2022/04/08 04:55:21;;;;;;;;;1.75;1.00;;;;;9.34;68.39;99296.19;5056939;28;45425;-60
2022/04/08 04:57:47;;;;;;;;;2.50;1.00;;;;;9.32;68.98;99280.53;5056270;28;46275;-60
2022/04/08 05:00:13;;;;;;;;;2.00;0.75;;;;;9.31;69.33;99276.22;5056180;28;45518;-61
2022/04/08 05:02:38;;;;;;;;;4.00;3.25;;;;;9.32;69.28;99277.91;5056873;28;45301;-61
2022/04/08 05:05:04;;;;;;;;;4.00;2.00;;;;;9.32;69.15;99270.03;5056648;28;45617;-61
2022/04/08 05:07:30;;;;;;;;;0.75;0.75;;;;;9.34;69.10;99262.06;5056477;28;46064;-61
2022/04/08 05:09:55;;;;;;;;;5.00;3.75;;;;;9.35;70.07;99253.25;5056392;28;45273;-60
2022/04/08 05:12:20;;;;;;;;;2.50;2.25;;;;;9.38;69.98;99241.75;5056639;28;45376;-62
2022/04/08 05:14:46;;;;;;;;;9.25;2.75;;;;;9.38;70.05;99236.50;5038394;28;45304;-62
2022/04/08 05:17:11;;;;;;;;;5.00;3.00;;;;;9.38;69.58;99228.63;5056369;28;46215;-60
2022/04/08 05:19:37;;;;;;;;;3.75;1.75;;;;;9.38;69.67;99223.38;5056478;28;45251;-61
2022/04/08 05:22:02;;;;;;;;;1.50;1.00;;;;;9.35;70.23;99217.38;5038544;28;45394;-61
2022/04/08 05:24:27;;;;;;;;;2.75;1.75;;;;;9.38;70.27;99221.59;5021786;28;45478;-60
2022/04/08 05:26:53;;;;;;;;;2.25;2.25;;;;;9.39;70.35;99222.47;5056177;28;45351;-60
2022/04/08 05:29:18;;;;;;;;;1.00;1.00;;;;;9.38;69.97;99211.09;5056088;28;45388;-61
2022/04/08 05:31:44;;;;;;;;;2.25;1.25;;;;;9.37;69.44;99212.03;5056140;28;45281;-62
2022/04/08 05:34:09;;;;;;;;;4.50;2.75;;;;;9.38;69.79;99205.03;5038704;28;45360;-61
2022/04/08 05:36:34;;;;;;;;;3.75;2.00;;;;;9.39;69.86;99201.47;5056008;28;45315;-62
2022/04/08 05:39:00;;;;;;;;;3.25;1.50;;;;;9.40;70.20;99192.66;5056060;28;45319;-61
2022/04/08 05:41:25;;;;;;;;;7.25;2.00;;;;;9.43;69.62;99188.06;5056151;28;45343;-61
2022/04/08 05:43:50;;;;;;;;;5.00;3.25;;;;;9.44;69.50;99178.41;5056358;28;45596;-60
2022/04/08 05:46:16;;;;;;;;;5.00;1.25;;;;;9.44;69.44;99181.03;5055844;28;45866;-61
2022/04/08 05:48:42;;;;;;;;;4.25;3.75;;;;;9.42;70.77;99178.50;5056154;28;45378;-61
2022/04/08 05:51:07;;;;;;;;;3.75;1.25;;;;;9.44;70.38;99168.75;5056288;28;45382;-60
2022/04/08 05:53:33;;;;;;;;;1.50;1.50;;;;;9.44;70.43;99160.03;5055993;28;45483;-62
2022/04/08 05:55:59;;;;;;;;;0.75;0.75;;;;;9.43;70.91;99159.19;5055679;28;45649;-60
2022/04/08 05:58:25;;;;;;;;;8.25;8.25;;;;;9.41;71.22;99147.94;5055557;28;45247;-61
2022/04/08 06:00:51;;;;;;;;;3.00;1.75;;;;;9.41;70.94;99147.94;5055223;28;45367;-61
2022/04/08 06:03:16;;;;;;;;;3.00;2.50;;;;;9.37;71.54;99142.97;5055954;28;45602;-60
2022/04/08 06:05:42;;;;;;;;;1.75;1.75;;;;;9.37;72.64;99129.84;5054378;28;47120;-60
2022/04/08 06:08:08;;;;;;;;;5.25;5.25;;;;;9.37;72.96;99130.69;5055647;28;45364;-60
2022/04/08 06:10:33;;;;;;;;;2.50;2.50;;;;;9.35;72.73;99127.28;5055676;28;45413;-62
2022/04/08 06:13:01;;;;;;;;;4.00;4.00;;;;;9.34;73.36;99128.22;5054923;28;45325;-62
2022/04/08 06:15:27;;;;;;;;;3.25;3.25;;;;;9.30;73.07;99114.47;5055398;28;47237;-62
2022/04/08 06:17:54;;;;;;;;;4.50;3.50;;;;;9.29;74.74;99106.66;5055430;28;45404;-63
2022/04/08 06:20:21;;;;;;;;;4.75;2.50;;;;;9.31;75.60;99104.78;5055196;28;45286;-62
2022/04/08 06:22:47;;;;;;;;;8.25;6.75;;;;;9.28;75.52;99094.47;5055488;28;45413;-60
2022/04/08 06:25:21;;;;;;;;;8.50;4.50;;;;;9.29;76.28;99096.16;5054778;28;47012;-60
2022/04/08 06:27:58;;;;;;;;;6.00;3.00;;;;;9.23;75.44;99086.91;5055148;28;45313;-62
2022/04/08 06:30:25;;;;;;;;;8.50;3.50;;;;;9.16;75.95;99078.53;5055155;28;45360;-64
2022/04/08 06:32:50;;;;;;;;;4.00;4.00;;;;;9.14;76.45;99072.53;5055595;28;45506;-62
2022/04/08 06:35:16;;;;;;;;;5.00;5.00;;;;;9.11;76.30;99059.59;5055006;28;45951;-63
2022/04/08 06:37:41;;;;;;;;;8.00;4.25;;;;;9.10;76.68;99063.16;5055625;28;45354;-62
2022/04/08 06:40:09;;;;;;;;;2.75;2.75;;;;;9.05;75.60;99057.31;5055499;28;45498;-61
2022/04/08 06:42:36;;;;;;;;;9.00;6.75;;;;;8.97;76.12;99049.88;5037162;28;45592;-60
2022/04/08 06:45:03;;;;;;;;;2.00;1.00;;;;;8.96;76.38;99055.25;5054797;28;45359;-62
2022/04/08 06:47:28;;;;;;;;;7.75;6.00;;;;;8.94;77.02;99064.97;5053844;28;45521;-60
2022/04/08 06:49:53;;;;;;;;;6.00;6.00;;;;;8.94;77.40;99055.31;5056895;28;45886;-62
2022/04/08 06:52:19;;;;;;;;;7.75;5.00;;;;;8.96;79.10;99058.69;5058091;28;45450;-65
2022/04/08 06:54:45;;;;;;;;;9.75;7.00;;;;;8.97;78.45;99059.56;5057005;28;46548;-64
2022/04/08 06:57:10;;;;;;;;;7.25;7.00;;;;;8.98;79.09;99056.81;5058614;28;45347;-62
2022/04/08 06:59:36;;;;;;;;;8.00;7.25;;;;;8.98;79.93;99053.38;5058355;28;45244;-62
2022/04/08 07:02:02;;;;;;;;;14.00;8.00;;;;;8.93;79.62;99048.38;5040322;28;45498;-64
2022/04/08 07:04:27;;;;;;;;;9.25;7.75;;;;;8.89;78.94;99047.72;5039988;28;47025;-62
2022/04/08 07:06:53;;;;;;;;;4.25;3.25;;;;;8.85;78.39;99051.47;5057680;28;45249;-67
2022/04/08 07:09:19;;;;;;;;;9.75;9.75;;;;;8.83;79.66;99055.94;5058646;28;45241;-66
2022/04/08 07:11:46;;;;;;;;;6.00;5.00;;;;;8.85;78.89;99051.47;5058314;28;45494;-64
2022/04/08 07:14:12;;;;;;;;;24.25;21.00;;;;;8.85;79.73;99051.47;5057644;28;46456;-65
2022/04/08 07:16:37;;;;;;;;;7.00;6.50;;;;;8.87;80.23;99044.34;5058426;28;45489;-66
2022/04/08 07:19:03;;;;;;;;;7.50;6.00;;;;;8.86;79.63;99037.41;5058199;28;45426;-64
2022/04/08 07:21:28;;;;;;;;;8.00;8.00;;;;;8.89;80.79;99034.63;5063980;28;45498;-64
2022/04/08 07:23:53;;;;;;;;;12.50;10.50;;;;;8.98;79.65;99027.97;5057501;28;45509;-63
2022/04/08 07:26:21;;;;;;;;;8.75;7.00;;;;;8.97;78.64;99023.66;5057281;28;45424;-64
2022/04/08 07:28:47;;;;;;;;;7.25;5.00;;;;;8.96;78.95;99021.16;5057094;28;45469;-65
2022/04/08 07:31:13;;;;;;;;;11.00;11.00;;;;;8.96;80.08;99015.91;5061214;28;46298;-63
2022/04/08 07:33:39;;;;;;;;;3.00;3.00;;;;;8.92;80.03;99007.34;5046467;28;46288;-63
2022/04/08 07:36:05;;;;;;;;;7.25;4.00;;;;;8.85;80.33;99001.63;5071288;28;45358;-72
2022/04/08 07:38:30;;;;;;;;;7.75;7.50;;;;;8.76;79.55;98989.06;5064004;28;45485;-65
2022/04/08 07:40:57;;;;;;;;;2.25;2.25;;;;;8.73;78.75;98981.38;5061147;28;45695;-62
2022/04/08 07:43:23;;;;;;;;;2.25;2.00;;;;;8.67;77.07;98976.50;5056120;28;46050;-62
2022/04/08 07:45:49;;;;;;;;;3.75;3.00;;;;;8.56;79.79;98964.00;5043281;28;45709;-63
2022/04/08 07:48:14;;;;;;;;;5.25;4.00;;;;;8.51;80.20;98948.56;5067327;28;45439;-67
2022/04/08 07:50:40;;;;;;;;;7.00;7.00;;;;;8.50;78.84;98938.16;5050573;28;45585;-70
2022/04/08 07:53:06;;;;;;;;;5.00;3.50;;;;;8.44;79.39;98919.19;5061309;28;45418;-65
2022/04/08 07:55:32;;;;;;;;;3.75;3.75;;;;;8.40;77.83;98912.47;5073882;27;45346;-66
2022/04/08 07:57:57;;;;;;;;;12.75;8.50;;;;;8.35;79.17;98917.13;5063327;27;45314;-65
2022/04/08 08:00:27;;;;;;;;;3.25;2.00;;;;;8.26;78.59;98920.28;5066499;28;45545;-67
2022/04/08 08:02:53;;;;;;;;;3.50;3.50;;;;;8.14;78.19;98924.41;5052937;28;48066;-67
2022/04/08 08:05:22;;;;;;;;;2.50;2.00;;;;;8.08;77.65;98920.38;5059166;28;45508;-67
2022/04/08 08:07:51;;;;;;;;;5.50;4.75;;;;;8.02;78.15;98911.09;5054365;28;45470;-64
2022/04/08 08:10:25;;;;;;;;;3.25;2.00;;;;;8.01;78.45;98906.78;5066024;28;45442;-63
2022/04/08 08:12:52;;;;;;;;;3.75;3.75;;;;;7.98;78.21;98896.47;5063575;27;46138;-63
2022/04/08 08:15:18;;;;;;;;;0.50;0.50;;;;;7.97;78.34;98891.34;5055505;28;45457;-65
2022/04/08 08:17:44;;;;;;;;;4.75;4.00;;;;;7.90;78.66;98894.28;5061971;28;45355;-64
2022/04/08 08:20:11;;;;;;;;;10.00;6.25;;;;;7.93;80.86;98869.72;5069812;27;45406;-64
2022/04/08 08:22:37;;;;;;;;;5.75;5.75;;;;;7.99;80.96;98860.69;5064911;28;45507;-62
2022/04/08 08:25:03;;;;;;;;;4.00;4.00;;;;;8.09;81.00;98874.09;5055418;28;45447;-66
2022/04/08 08:27:38;;;;;;;;;4.25;4.25;;;;;8.13;80.05;98876.44;5055517;28;45433;-65
2022/04/08 08:30:05;;;;;;;;;4.00;4.00;;;;;8.11;79.00;98849.50;5038912;28;45267;-66
2022/04/08 08:32:31;;;;;;;;;5.75;5.75;;;;;8.04;79.11;98833.28;5055387;28;46381;-65
2022/04/08 08:34:56;;;;;;;;;10.75;8.50;;;;;8.02;81.17;98843.00;5037692;28;45425;-66
2022/04/08 08:37:22;;;;;;;;;18.25;12.25;;;;;8.09;83.29;98845.28;5056412;28;45346;-64
2022/04/08 08:39:47;;;;;;;;;14.00;7.25;;;;;8.16;84.33;98857.09;5057328;28;45449;-66
2022/04/08 08:42:13;;;;;;;;;6.50;6.50;;;;;8.17;83.56;98837.81;5057208;28;45526;-66
2022/04/08 08:44:39;;;;;;;;;4.00;4.00;;;;;8.14;82.02;98833.63;5057028;28;45407;-64
2022/04/08 08:47:10;;;;;;;;;5.50;4.75;;;;;8.07;82.39;98826.19;5057038;28;45322;-66
2022/04/08 08:49:38;;;;;;;;;7.50;3.25;;;;;8.05;82.09;98821.06;5057088;28;45388;-66
2022/04/08 08:52:07;;;;;;;;;4.50;3.00;;;;;8.08;82.91;98827.88;5056511;28;46360;-65
2022/04/08 08:54:33;;;;;;;;;7.75;6.50;;;;;8.06;83.41;98819.25;5056591;28;45419;-64
2022/04/08 08:57:00;;;;;;;;;8.00;7.00;;;;;8.02;83.02;98816.81;5038505;28;45330;-66
2022/04/08 08:59:26;;;;;;;;;6.50;5.75;;;;;8.02;84.12;98803.72;5056744;28;45590;-65
2022/04/08 09:02:00;;;;;;;;;14.00;13.75;;;;;8.01;84.36;98786.34;5056395;28;45840;-65
2022/04/08 09:04:26;;;;;;;;;8.50;5.75;;;;;8.09;85.59;98791.13;5056278;28;45431;-63
2022/04/08 09:06:51;;;;;;;;;6.50;6.50;;;;;8.19;85.10;98773.09;5056607;28;45202;-65
2022/04/08 09:09:27;;;;;;;;;5.50;5.50;;;;;8.11;84.65;98752.59;5038790;28;45561;-65
2022/04/08 09:11:53;;;;;;;;;4.50;3.25;;;;;8.06;83.87;98738.09;5056308;28;45531;-67
2022/04/08 09:14:27;;;;;;;;;5.00;4.00;;;;;7.95;82.83;98731.72;5056563;28;45358;-66
2022/04/08 09:17:01;;;;;;;;;5.25;4.00;;;;;7.87;82.37;98731.31;5056920;28;45315;-65
2022/04/08 09:19:31;;;;;;;;;6.00;5.00;;;;;7.76;85.31;98747.66;5056592;28;45522;-66
2022/04/08 09:21:56;;;;;;;;;10.75;7.50;;;;;7.69;86.65;98741.09;5056177;28;47188;-66
2022/04/08 09:24:27;;;;;;;;;5.75;4.50;;;;;7.73;87.54;98726.88;5056427;28;45399;-66
2022/04/08 09:26:53;;;;;;;;;5.50;5.50;;;;;7.72;86.95;98699.88;5056542;28;45245;-65
2022/04/08 09:29:20;;;;;;;;;11.25;11.25;;;;;7.63;86.29;98687.34;5056562;28;45474;-67
2022/04/08 09:31:48;;;;;;;;;9.75;6.50;;;;;7.55;87.49;98676.47;5056306;28;47590;-65
2022/04/08 09:34:16;;;;;;;;;7.75;5.00;;;;;7.53;86.63;98712.34;5056492;28;45426;-66
2022/04/08 09:36:42;;;;;;;;;3.00;3.00;;;;;7.44;87.43;98734.66;5056319;28;45274;-65
2022/04/08 09:39:12;;;;;;;;;4.50;4.50;;;;;7.35;88.09;98729.94;5056389;28;45475;-65
2022/04/08 09:41:42;;;;;;;;;8.00;6.75;;;;;7.30;88.11;98736.28;5056121;28;46200;-65
2022/04/08 09:44:09;;;;;;;;;6.00;4.00;;;;;7.15;89.79;98737.97;5056281;28;45461;-65
2022/04/08 09:46:36;;;;;;;;;4.25;3.50;;;;;6.96;94.41;98730.31;5056232;28;45354;-65
2022/04/08 09:49:05;;;;;;;;;15.75;14.00;;;;;6.88;97.28;98737.69;5056159;28;45584;-65
2022/04/08 09:51:39;;;;;;;;;12.25;12.00;;;;;6.86;99.71;98742.16;5055695;28;46239;-66
2022/04/08 09:54:12;;;;;;;;;8.50;8.00;;;;;6.86;100.00;98766.56;5056251;28;45269;-65
2022/04/08 09:56:38;;;;;;;;;21.00;18.25;;;;;6.74;100.00;98756.75;5055904;28;45430;-64
2022/04/08 09:59:10;;;;;;;;;8.00;6.25;;;;;6.64;100.00;98738.09;5056095;28;45193;-65
2022/04/08 10:01:36;;;;;;;;;14.25;12.50;;;;;6.52;100.00;98705.66;5055772;28;46351;-66
2022/04/08 10:04:10;;;;;;;;;9.00;8.50;;;;;6.52;100.00;98671.72;5055823;28;45388;-65
2022/04/08 10:06:36;;;;;;;;;11.75;8.25;;;;;6.49;100.00;98681.47;5055941;28;45412;-65
2022/04/08 10:09:04;;;;;;;;;11.25;9.50;;;;;6.48;100.00;98722.44;5055761;28;45483;-64
2022/04/08 10:11:58;;;;;;;;;5.50;5.50;;;;;6.33;100.00;98784.13;5055185;28;47002;-66
2022/04/08 10:14:43;;;;;;;;;5.00;3.25;;;;;6.22;100.00;98789.88;5055244;28;45375;-65
2022/04/08 10:17:09;;;;;;;;;10.00;7.25;;;;;6.17;100.00;98799.72;5055345;28;45418;-65
2022/04/08 10:19:35;;;;;;;;;12.25;10.50;;;;;6.18;100.00;98756.19;5055711;28;45492;-66
2022/04/08 10:22:00;;;;;;;;;15.00;11.75;;;;;6.06;100.00;98731.56;5055055;28;45454;-66
2022/04/08 10:24:36;;;;;;;;;8.75;6.75;;;;;5.96;100.00;98725.94;5054428;28;45457;-65
2022/04/08 10:27:11;;;;;;;;;8.25;8.25;;;;;5.88;100.00;98704.63;5055405;28;45299;-65
2022/04/08 10:29:37;;;;;;;;;11.75;9.75;;;;;5.77;100.00;98700.75;5037665;28;45296;-66
2022/04/08 10:32:14;;;;;;;;;13.25;11.50;;;;;5.72;100.00;98681.88;5036912;28;48238;-67
2022/04/08 10:34:39;;;;;;;;;11.25;10.75;;;;;5.68;100.00;98689.03;5055145;28;45319;-66
2022/04/08 10:37:23;;;;;;;;;7.25;7.00;;;;;5.61;100.00;98669.41;5055377;28;45396;-64
2022/04/08 10:39:56;;;;;;;;;14.00;13.50;;;;;5.68;100.00;98647.31;5055699;28;45467;-64
2022/04/08 10:42:23;;;;;;;;;16.50;16.00;;;;;5.75;100.00;98610.47;5054913;28;45379;-67
2022/04/08 10:44:48;;;;;;;;;7.00;7.00;;;;;5.88;100.00;98589.81;5055294;28;45364;-66
2022/04/08 10:47:18;;;;;;;;;7.50;7.50;;;;;5.89;100.00;98587.09;5055112;28;45370;-66
2022/04/08 10:49:54;;;;;;;;;14.00;11.00;;;;;5.93;100.00;98586.00;5055085;28;45649;-65
2022/04/08 10:52:25;;;;;;;;;7.25;7.25;;;;;6.03;100.00;98591.63;5036979;28;47132;-65
2022/04/08 10:55:03;;;;;;;;;8.00;8.00;;;;;6.05;100.00;98584.56;5055133;28;45343;-65
2022/04/08 10:57:44;;;;;;;;;16.50;13.50;;;;;6.12;100.00;98596.34;5054891;28;45258;-65
2022/04/08 11:00:17;;;;;;;;;13.75;11.50;;;;;6.23;100.00;98634.94;5036658;28;45513;-66
2022/04/08 11:02:43;;;;;;;;;13.00;8.50;;;;;6.37;100.00;98617.69;5035980;28;45761;-66
2022/04/08 11:05:13;;;;;;;;;11.75;11.00;;;;;6.40;100.00;98667.16;5054997;28;45392;-65
2022/04/08 11:07:44;;;;;;;;;11.75;10.75;;;;;6.39;100.00;98636.75;5036618;28;45376;-67
2022/04/08 11:10:18;;;;;;;;;13.50;12.00;;;;;6.37;100.00;98615.91;5054730;28;45335;-66
2022/04/08 11:12:45;;;;;;;;;14.75;13.00;;;;;6.28;100.00;98622.47;5054299;28;46054;-66
2022/04/08 11:15:15;;;;;;;;;10.00;9.00;;;;;6.19;100.00;98628.19;5054625;28;45347;-68
2022/04/08 11:17:41;;;;;;;;;28.25;21.00;;;;;6.23;100.00;98634.09;5036331;28;45405;-66
2022/04/08 11:20:09;;;;;;;;;13.50;11.25;;;;;6.35;100.00;98596.88;5054980;28;45601;-65
2022/04/08 11:22:39;;;;;;;;;8.00;8.00;;;;;6.44;100.00;98606.00;5055164;28;46797;-68
2022/04/08 11:25:05;;;;;;;;;9.50;9.25;;;;;6.60;100.00;98619.03;5054831;28;45288;-66
2022/04/08 11:27:31;;;;;;;;;16.00;13.75;;;;;6.86;100.00;98614.97;5055147;28;45371;-66
2022/04/08 11:29:57;;;;;;;;;7.75;7.25;;;;;7.08;100.00;98605.06;5036810;28;45316;-66
2022/04/08 11:32:29;;;;;;;;;14.00;12.00;;;;;7.26;100.00;98598.78;5054659;28;45337;-67
2022/04/08 11:34:55;;;;;;;;;19.75;19.75;;;;;7.42;100.00;98583.03;5055337;28;45459;-63
2022/04/08 11:37:28;;;;;;;;;22.50;20.50;;;;;7.51;100.00;98610.41;5058541;28;45289;-67